sensor_id;sensor_type;location;lat;lon;timestamp;P1;P2;P0
64138;PMS5003;50435;43.700;-79.318;2023-07-09T00:02:14;26;23;
64138;PMS5003;50435;43.700;-79.318;2023-07-09T00:04:42;18;17;
64138;PMS5003;50435;43.700;-79.318;2023-07-09T00:07:13;20;18;
64138;PMS5003;50435;43.700;-79.318;2023-07-09T00:09:44;21;15;
64138;PMS5003;50435;43.700;-79.318;2023-07-09T00:12:13;18;16;
64138;PMS5003;50435;43.700;-79.318;2023-07-09T00:14:41;17;16;
64138;PMS5003;50435;43.700;-79.318;2023-07-09T00:17:10;12;12;
64138;PMS5003;50435;43.700;-79.318;2023-07-09T00:19:44;16;15;
64138;PMS5003;50435;43.700;-79.318;2023-07-09T00:22:13;13;11;
64138;PMS5003;50435;43.700;-79.318;2023-07-09T00:24:42;18;17;
64138;PMS5003;50435;43.700;-79.318;2023-07-09T00:27:11;18;12;
64138;PMS5003;50435;43.700;-79.318;2023-07-09T00:29:39;12;12;
64138;PMS5003;50435;43.700;-79.318;2023-07-09T00:32:10;14;14;
64138;PMS5003;50435;43.700;-79.318;2023-07-09T00:34:39;12;11;
64138;PMS5003;50435;43.700;-79.318;2023-07-09T00:37:09;12;11;
64138;PMS5003;50435;43.700;-79.318;2023-07-09T00:39:38;15;12;
64138;PMS5003;50435;43.700;-79.318;2023-07-09T00:42:07;14;14;
64138;PMS5003;50435;43.700;-79.318;2023-07-09T00:44:38;13;12;
64138;PMS5003;50435;43.700;-79.318;2023-07-09T00:47:15;13;9;
64138;PMS5003;50435;43.700;-79.318;2023-07-09T00:49:48;15;14;
64138;PMS5003;50435;43.700;-79.318;2023-07-09T00:52:21;11;11;
64138;PMS5003;50435;43.700;-79.318;2023-07-09T00:54:52;15;15;
64138;PMS5003;50435;43.700;-79.318;2023-07-09T00:57:22;14;11;
64138;PMS5003;50435;43.700;-79.318;2023-07-09T00:59:53;11;10;
64138;PMS5003;50435;43.700;-79.318;2023-07-09T01:02:25;11;11;
64138;PMS5003;50435;43.700;-79.318;2023-07-09T01:04:54;11;11;
64138;PMS5003;50435;43.700;-79.318;2023-07-09T01:07:25;12;12;
64138;PMS5003;50435;43.700;-79.318;2023-07-09T01:09:53;9;9;
64138;PMS5003;50435;43.700;-79.318;2023-07-09T01:12:21;12;11;
64138;PMS5003;50435;43.700;-79.318;2023-07-09T01:14:50;11;11;
64138;PMS5003;50435;43.700;-79.318;2023-07-09T01:17:21;11;9;
64138;PMS5003;50435;43.700;-79.318;2023-07-09T01:19:49;11;11;
64138;PMS5003;50435;43.700;-79.318;2023-07-09T01:22:18;15;9;
64138;PMS5003;50435;43.700;-79.318;2023-07-09T01:24:49;12;9;
64138;PMS5003;50435;43.700;-79.318;2023-07-09T01:27:21;10;10;
64138;PMS5003;50435;43.700;-79.318;2023-07-09T01:29:50;9;9;
64138;PMS5003;50435;43.700;-79.318;2023-07-09T01:32:19;9;9;
64138;PMS5003;50435;43.700;-79.318;2023-07-09T01:34:48;10;10;
64138;PMS5003;50435;43.700;-79.318;2023-07-09T01:37:19;11;11;
64138;PMS5003;50435;43.700;-79.318;2023-07-09T01:39:48;11;11;
64138;PMS5003;50435;43.700;-79.318;2023-07-09T01:42:16;9;8;
64138;PMS5003;50435;43.700;-79.318;2023-07-09T01:44:44;7;7;
64138;PMS5003;50435;43.700;-79.318;2023-07-09T01:47:12;8;8;
64138;PMS5003;50435;43.700;-79.318;2023-07-09T01:49:39;9;9;
64138;PMS5003;50435;43.700;-79.318;2023-07-09T01:52:07;7;7;
64138;PMS5003;50435;43.700;-79.318;2023-07-09T01:54:35;7;7;
64138;PMS5003;50435;43.700;-79.318;2023-07-09T01:57:13;9;9;
64138;PMS5003;50435;43.700;-79.318;2023-07-09T01:59:42;9;9;
64138;PMS5003;50435;43.700;-79.318;2023-07-09T02:02:10;7;6;
64138;PMS5003;50435;43.700;-79.318;2023-07-09T02:04:38;9;8;
64138;PMS5003;50435;43.700;-79.318;2023-07-09T02:07:06;10;8;
64138;PMS5003;50435;43.700;-79.318;2023-07-09T02:09:33;9;7;
64138;PMS5003;50435;43.700;-79.318;2023-07-09T02:12:01;9;8;
64138;PMS5003;50435;43.700;-79.318;2023-07-09T02:14:28;9;8;
64138;PMS5003;50435;43.700;-79.318;2023-07-09T02:16:56;5;5;
64138;PMS5003;50435;43.700;-79.318;2023-07-09T02:19:24;7;7;
64138;PMS5003;50435;43.700;-79.318;2023-07-09T02:21:51;7;7;
64138;PMS5003;50435;43.700;-79.318;2023-07-09T02:24:18;10;10;
64138;PMS5003;50435;43.700;-79.318;2023-07-09T02:26:46;8;8;
64138;PMS5003;50435;43.700;-79.318;2023-07-09T02:29:13;8;8;
64138;PMS5003;50435;43.700;-79.318;2023-07-09T02:31:41;9;8;
64138;PMS5003;50435;43.700;-79.318;2023-07-09T02:34:09;7;7;
64138;PMS5003;50435;43.700;-79.318;2023-07-09T02:36:36;7;7;
64138;PMS5003;50435;43.700;-79.318;2023-07-09T02:39:04;7;7;
64138;PMS5003;50435;43.700;-79.318;2023-07-09T02:41:31;6;6;
64138;PMS5003;50435;43.700;-79.318;2023-07-09T02:43:59;7;7;
64138;PMS5003;50435;43.700;-79.318;2023-07-09T02:46:26;9;7;
64138;PMS5003;50435;43.700;-79.318;2023-07-09T02:48:54;8;7;
64138;PMS5003;50435;43.700;-79.318;2023-07-09T02:51:22;8;7;
64138;PMS5003;50435;43.700;-79.318;2023-07-09T02:53:49;8;7;
64138;PMS5003;50435;43.700;-79.318;2023-07-09T02:56:17;9;6;
64138;PMS5003;50435;43.700;-79.318;2023-07-09T02:58:44;10;7;
64138;PMS5003;50435;43.700;-79.318;2023-07-09T03:01:12;8;7;
64138;PMS5003;50435;43.700;-79.318;2023-07-09T03:03:39;9;7;
64138;PMS5003;50435;43.700;-79.318;2023-07-09T03:06:07;8;8;
64138;PMS5003;50435;43.700;-79.318;2023-07-09T03:08:34;7;7;
64138;PMS5003;50435;43.700;-79.318;2023-07-09T03:11:08;7;6;
64138;PMS5003;50435;43.700;-79.318;2023-07-09T03:13:36;12;11;
64138;PMS5003;50435;43.700;-79.318;2023-07-09T03:16:04;8;7;
64138;PMS5003;50435;43.700;-79.318;2023-07-09T03:18:31;9;8;
64138;PMS5003;50435;43.700;-79.318;2023-07-09T03:20:59;5;5;
64138;PMS5003;50435;43.700;-79.318;2023-07-09T03:23:27;5;5;
64138;PMS5003;50435;43.700;-79.318;2023-07-09T03:25:54;6;6;
64138;PMS5003;50435;43.700;-79.318;2023-07-09T03:28:22;8;7;
64138;PMS5003;50435;43.700;-79.318;2023-07-09T03:30:49;6;6;
64138;PMS5003;50435;43.700;-79.318;2023-07-09T03:33:22;7;7;
64138;PMS5003;50435;43.700;-79.318;2023-07-09T03:35:50;7;7;
64138;PMS5003;50435;43.700;-79.318;2023-07-09T03:38:18;8;7;
64138;PMS5003;50435;43.700;-79.318;2023-07-09T03:40:49;7;6;
64138;PMS5003;50435;43.700;-79.318;2023-07-09T03:43:16;7;7;
64138;PMS5003;50435;43.700;-79.318;2023-07-09T03:45:44;10;8;
64138;PMS5003;50435;43.700;-79.318;2023-07-09T03:48:12;5;5;
64138;PMS5003;50435;43.700;-79.318;2023-07-09T03:50:42;8;7;
64138;PMS5003;50435;43.700;-79.318;2023-07-09T03:53:12;8;8;
64138;PMS5003;50435;43.700;-79.318;2023-07-09T03:55:40;7;7;
64138;PMS5003;50435;43.700;-79.318;2023-07-09T03:58:08;7;7;
64138;PMS5003;50435;43.700;-79.318;2023-07-09T04:00:36;6;6;
64138;PMS5003;50435;43.700;-79.318;2023-07-09T04:03:03;9;6;
64138;PMS5003;50435;43.700;-79.318;2023-07-09T04:05:30;8;8;
64138;PMS5003;50435;43.700;-79.318;2023-07-09T04:07:58;7;7;
64138;PMS5003;50435;43.700;-79.318;2023-07-09T04:10:26;8;7;
64138;PMS5003;50435;43.700;-79.318;2023-07-09T04:12:53;8;8;
64138;PMS5003;50435;43.700;-79.318;2023-07-09T04:15:21;7;7;
64138;PMS5003;50435;43.700;-79.318;2023-07-09T04:17:48;12;8;
64138;PMS5003;50435;43.700;-79.318;2023-07-09T04:20:16;10;8;
64138;PMS5003;50435;43.700;-79.318;2023-07-09T04:22:44;12;10;
64138;PMS5003;50435;43.700;-79.318;2023-07-09T04:25:12;5;5;
64138;PMS5003;50435;43.700;-79.318;2023-07-09T04:27:39;8;6;
64138;PMS5003;50435;43.700;-79.318;2023-07-09T04:30:08;7;6;
64138;PMS5003;50435;43.700;-79.318;2023-07-09T04:32:37;11;11;
64138;PMS5003;50435;43.700;-79.318;2023-07-09T04:35:05;9;7;
64138;PMS5003;50435;43.700;-79.318;2023-07-09T04:37:33;7;7;
64138;PMS5003;50435;43.700;-79.318;2023-07-09T04:40:01;6;6;
64138;PMS5003;50435;43.700;-79.318;2023-07-09T04:42:28;7;7;
64138;PMS5003;50435;43.700;-79.318;2023-07-09T04:44:55;7;7;
64138;PMS5003;50435;43.700;-79.318;2023-07-09T04:47:23;7;7;
64138;PMS5003;50435;43.700;-79.318;2023-07-09T04:49:50;7;7;
64138;PMS5003;50435;43.700;-79.318;2023-07-09T04:52:18;10;9;
64138;PMS5003;50435;43.700;-79.318;2023-07-09T04:54:45;8;7;
64138;PMS5003;50435;43.700;-79.318;2023-07-09T04:57:13;9;9;
64138;PMS5003;50435;43.700;-79.318;2023-07-09T04:59:40;7;7;
64138;PMS5003;50435;43.700;-79.318;2023-07-09T05:02:08;8;7;
64138;PMS5003;50435;43.700;-79.318;2023-07-09T05:04:35;7;7;
64138;PMS5003;50435;43.700;-79.318;2023-07-09T05:07:03;10;10;
64138;PMS5003;50435;43.700;-79.318;2023-07-09T05:09:31;10;8;
64138;PMS5003;50435;43.700;-79.318;2023-07-09T05:11:59;9;8;
64138;PMS5003;50435;43.700;-79.318;2023-07-09T05:14:27;7;7;
64138;PMS5003;50435;43.700;-79.318;2023-07-09T05:16:55;9;9;
64138;PMS5003;50435;43.700;-79.318;2023-07-09T05:19:22;7;7;
64138;PMS5003;50435;43.700;-79.318;2023-07-09T05:21:50;7;7;
64138;PMS5003;50435;43.700;-79.318;2023-07-09T05:24:17;8;8;
64138;PMS5003;50435;43.700;-79.318;2023-07-09T05:26:44;9;8;
64138;PMS5003;50435;43.700;-79.318;2023-07-09T05:29:12;10;8;
64138;PMS5003;50435;43.700;-79.318;2023-07-09T05:31:40;9;8;
64138;PMS5003;50435;43.700;-79.318;2023-07-09T05:34:07;8;7;
64138;PMS5003;50435;43.700;-79.318;2023-07-09T05:36:35;8;6;
64138;PMS5003;50435;43.700;-79.318;2023-07-09T05:39:02;9;9;
64138;PMS5003;50435;43.700;-79.318;2023-07-09T05:41:30;6;5;
64138;PMS5003;50435;43.700;-79.318;2023-07-09T05:43:57;7;7;
64138;PMS5003;50435;43.700;-79.318;2023-07-09T05:46:25;6;6;
64138;PMS5003;50435;43.700;-79.318;2023-07-09T05:48:52;5;5;
64138;PMS5003;50435;43.700;-79.318;2023-07-09T05:51:20;8;8;
64138;PMS5003;50435;43.700;-79.318;2023-07-09T05:53:47;4;4;
64138;PMS5003;50435;43.700;-79.318;2023-07-09T05:56:15;9;9;
64138;PMS5003;50435;43.700;-79.318;2023-07-09T05:58:42;9;8;
64138;PMS5003;50435;43.700;-79.318;2023-07-09T06:01:10;7;6;
64138;PMS5003;50435;43.700;-79.318;2023-07-09T06:03:37;6;6;
64138;PMS5003;50435;43.700;-79.318;2023-07-09T06:06:05;9;6;
64138;PMS5003;50435;43.700;-79.318;2023-07-09T06:08:33;6;6;
64138;PMS5003;50435;43.700;-79.318;2023-07-09T06:11:02;8;6;
64138;PMS5003;50435;43.700;-79.318;2023-07-09T06:13:30;6;6;
64138;PMS5003;50435;43.700;-79.318;2023-07-09T06:15:58;5;5;
64138;PMS5003;50435;43.700;-79.318;2023-07-09T06:18:26;5;5;
64138;PMS5003;50435;43.700;-79.318;2023-07-09T06:20:55;6;6;
64138;PMS5003;50435;43.700;-79.318;2023-07-09T06:23:24;6;6;
64138;PMS5003;50435;43.700;-79.318;2023-07-09T06:25:52;6;4;
64138;PMS5003;50435;43.700;-79.318;2023-07-09T06:28:20;7;6;
64138;PMS5003;50435;43.700;-79.318;2023-07-09T06:30:49;5;5;
64138;PMS5003;50435;43.700;-79.318;2023-07-09T06:33:17;7;7;
64138;PMS5003;50435;43.700;-79.318;2023-07-09T06:35:46;6;6;
64138;PMS5003;50435;43.700;-79.318;2023-07-09T06:38:15;6;6;
64138;PMS5003;50435;43.700;-79.318;2023-07-09T06:40:43;5;5;
64138;PMS5003;50435;43.700;-79.318;2023-07-09T06:43:11;5;5;
64138;PMS5003;50435;43.700;-79.318;2023-07-09T06:45:38;5;5;
64138;PMS5003;50435;43.700;-79.318;2023-07-09T06:48:14;6;6;
64138;PMS5003;50435;43.700;-79.318;2023-07-09T06:50:42;6;6;
64138;PMS5003;50435;43.700;-79.318;2023-07-09T06:53:10;4;4;
64138;PMS5003;50435;43.700;-79.318;2023-07-09T06:55:37;6;5;
64138;PMS5003;50435;43.700;-79.318;2023-07-09T06:58:05;6;6;
64138;PMS5003;50435;43.700;-79.318;2023-07-09T07:00:33;4;4;
64138;PMS5003;50435;43.700;-79.318;2023-07-09T07:03:01;5;5;
64138;PMS5003;50435;43.700;-79.318;2023-07-09T07:05:29;4;4;
64138;PMS5003;50435;43.700;-79.318;2023-07-09T07:07:56;5;5;
64138;PMS5003;50435;43.700;-79.318;2023-07-09T07:10:24;7;6;
64138;PMS5003;50435;43.700;-79.318;2023-07-09T07:12:52;3;3;
64138;PMS5003;50435;43.700;-79.318;2023-07-09T07:15:19;3;3;
64138;PMS5003;50435;43.700;-79.318;2023-07-09T07:17:47;6;6;
64138;PMS5003;50435;43.700;-79.318;2023-07-09T07:20:15;5;5;
64138;PMS5003;50435;43.700;-79.318;2023-07-09T07:22:43;6;5;
64138;PMS5003;50435;43.700;-79.318;2023-07-09T07:25:10;6;5;
64138;PMS5003;50435;43.700;-79.318;2023-07-09T07:27:38;7;6;
64138;PMS5003;50435;43.700;-79.318;2023-07-09T07:30:06;7;6;
64138;PMS5003;50435;43.700;-79.318;2023-07-09T07:32:35;6;5;
64138;PMS5003;50435;43.700;-79.318;2023-07-09T07:35:04;7;5;
64138;PMS5003;50435;43.700;-79.318;2023-07-09T07:37:33;6;6;
64138;PMS5003;50435;43.700;-79.318;2023-07-09T07:40:00;8;7;
64138;PMS5003;50435;43.700;-79.318;2023-07-09T07:42:28;4;4;
64138;PMS5003;50435;43.700;-79.318;2023-07-09T07:44:56;6;5;
64138;PMS5003;50435;43.700;-79.318;2023-07-09T07:47:23;8;8;
64138;PMS5003;50435;43.700;-79.318;2023-07-09T07:49:50;8;6;
64138;PMS5003;50435;43.700;-79.318;2023-07-09T07:52:18;6;5;
64138;PMS5003;50435;43.700;-79.318;2023-07-09T07:54:46;7;7;
64138;PMS5003;50435;43.700;-79.318;2023-07-09T07:57:13;8;7;
64138;PMS5003;50435;43.700;-79.318;2023-07-09T07:59:41;5;5;
64138;PMS5003;50435;43.700;-79.318;2023-07-09T08:02:10;5;5;
64138;PMS5003;50435;43.700;-79.318;2023-07-09T08:04:40;6;6;
64138;PMS5003;50435;43.700;-79.318;2023-07-09T08:07:08;4;4;
64138;PMS5003;50435;43.700;-79.318;2023-07-09T08:09:36;6;6;
64138;PMS5003;50435;43.700;-79.318;2023-07-09T08:12:03;7;6;
64138;PMS5003;50435;43.700;-79.318;2023-07-09T08:14:32;7;6;
64138;PMS5003;50435;43.700;-79.318;2023-07-09T08:16:59;8;8;
64138;PMS5003;50435;43.700;-79.318;2023-07-09T08:19:26;7;7;
64138;PMS5003;50435;43.700;-79.318;2023-07-09T08:21:54;7;6;
64138;PMS5003;50435;43.700;-79.318;2023-07-09T08:24:22;5;5;
64138;PMS5003;50435;43.700;-79.318;2023-07-09T08:26:49;6;6;
64138;PMS5003;50435;43.700;-79.318;2023-07-09T08:29:17;7;7;
64138;PMS5003;50435;43.700;-79.318;2023-07-09T08:31:44;4;4;
64138;PMS5003;50435;43.700;-79.318;2023-07-09T08:34:12;5;5;
64138;PMS5003;50435;43.700;-79.318;2023-07-09T08:36:39;8;8;
64138;PMS5003;50435;43.700;-79.318;2023-07-09T08:39:07;5;5;
64138;PMS5003;50435;43.700;-79.318;2023-07-09T08:41:37;7;5;
64138;PMS5003;50435;43.700;-79.318;2023-07-09T08:44:14;6;6;
64138;PMS5003;50435;43.700;-79.318;2023-07-09T08:46:59;10;5;
64138;PMS5003;50435;43.700;-79.318;2023-07-09T08:49:34;7;7;
64138;PMS5003;50435;43.700;-79.318;2023-07-09T08:52:10;8;7;
64138;PMS5003;50435;43.700;-79.318;2023-07-09T08:54:43;7;7;
64138;PMS5003;50435;43.700;-79.318;2023-07-09T08:57:17;5;5;
64138;PMS5003;50435;43.700;-79.318;2023-07-09T08:59:48;7;7;
64138;PMS5003;50435;43.700;-79.318;2023-07-09T09:02:25;5;5;
64138;PMS5003;50435;43.700;-79.318;2023-07-09T09:04:58;5;5;
64138;PMS5003;50435;43.700;-79.318;2023-07-09T09:07:31;7;5;
64138;PMS5003;50435;43.700;-79.318;2023-07-09T09:10:07;4;4;
64138;PMS5003;50435;43.700;-79.318;2023-07-09T09:12:43;7;6;
64138;PMS5003;50435;43.700;-79.318;2023-07-09T09:15:28;7;7;
64138;PMS5003;50435;43.700;-79.318;2023-07-09T09:17:57;6;6;
64138;PMS5003;50435;43.700;-79.318;2023-07-09T09:20:37;6;6;
64138;PMS5003;50435;43.700;-79.318;2023-07-09T09:23:10;5;4;
64138;PMS5003;50435;43.700;-79.318;2023-07-09T09:25:41;4;3;
64138;PMS5003;50435;43.700;-79.318;2023-07-09T09:28:12;6;6;
64138;PMS5003;50435;43.700;-79.318;2023-07-09T09:30:40;8;7;
64138;PMS5003;50435;43.700;-79.318;2023-07-09T09:33:08;8;7;
64138;PMS5003;50435;43.700;-79.318;2023-07-09T09:35:39;7;7;
64138;PMS5003;50435;43.700;-79.318;2023-07-09T09:38:10;8;8;
64138;PMS5003;50435;43.700;-79.318;2023-07-09T09:40:39;8;7;
64138;PMS5003;50435;43.700;-79.318;2023-07-09T09:43:11;7;7;
64138;PMS5003;50435;43.700;-79.318;2023-07-09T09:45:43;6;6;
64138;PMS5003;50435;43.700;-79.318;2023-07-09T09:48:13;7;7;
64138;PMS5003;50435;43.700;-79.318;2023-07-09T09:50:42;5;5;
64138;PMS5003;50435;43.700;-79.318;2023-07-09T09:53:11;9;7;
64138;PMS5003;50435;43.700;-79.318;2023-07-09T09:55:46;6;6;
64138;PMS5003;50435;43.700;-79.318;2023-07-09T09:58:15;7;7;
64138;PMS5003;50435;43.700;-79.318;2023-07-09T10:00:47;7;7;
64138;PMS5003;50435;43.700;-79.318;2023-07-09T10:03:16;7;7;
64138;PMS5003;50435;43.700;-79.318;2023-07-09T10:05:44;7;7;
64138;PMS5003;50435;43.700;-79.318;2023-07-09T10:08:23;7;7;
64138;PMS5003;50435;43.700;-79.318;2023-07-09T10:11:03;5;5;
64138;PMS5003;50435;43.700;-79.318;2023-07-09T10:13:39;6;6;
64138;PMS5003;50435;43.700;-79.318;2023-07-09T10:16:13;5;5;
64138;PMS5003;50435;43.700;-79.318;2023-07-09T10:18:49;6;6;
64138;PMS5003;50435;43.700;-79.318;2023-07-09T10:21:22;9;5;
64138;PMS5003;50435;43.700;-79.318;2023-07-09T10:23:55;10;8;
64138;PMS5003;50435;43.700;-79.318;2023-07-09T10:26:31;6;4;
64138;PMS5003;50435;43.700;-79.318;2023-07-09T10:29:08;7;7;
64138;PMS5003;50435;43.700;-79.318;2023-07-09T10:31:54;5;5;
64138;PMS5003;50435;43.700;-79.318;2023-07-09T10:34:31;6;6;
64138;PMS5003;50435;43.700;-79.318;2023-07-09T10:37:13;12;10;
64138;PMS5003;50435;43.700;-79.318;2023-07-09T10:39:51;6;6;
64138;PMS5003;50435;43.700;-79.318;2023-07-09T10:42:25;7;7;
64138;PMS5003;50435;43.700;-79.318;2023-07-09T10:44:58;4;4;
64138;PMS5003;50435;43.700;-79.318;2023-07-09T10:47:31;5;5;
64138;PMS5003;50435;43.700;-79.318;2023-07-09T10:50:02;6;6;
64138;PMS5003;50435;43.700;-79.318;2023-07-09T10:52:34;7;7;
64138;PMS5003;50435;43.700;-79.318;2023-07-09T10:55:09;4;4;
64138;PMS5003;50435;43.700;-79.318;2023-07-09T10:57:45;7;7;
64138;PMS5003;50435;43.700;-79.318;2023-07-09T11:00:19;5;5;
64138;PMS5003;50435;43.700;-79.318;2023-07-09T11:02:52;7;7;
64138;PMS5003;50435;43.700;-79.318;2023-07-09T11:05:26;7;6;
64138;PMS5003;50435;43.700;-79.318;2023-07-09T11:07:55;4;3;
64138;PMS5003;50435;43.700;-79.318;2023-07-09T11:10:28;7;7;
64138;PMS5003;50435;43.700;-79.318;2023-07-09T11:12:59;7;7;
64138;PMS5003;50435;43.700;-79.318;2023-07-09T11:15:30;8;8;
64138;PMS5003;50435;43.700;-79.318;2023-07-09T11:18:03;8;6;
64138;PMS5003;50435;43.700;-79.318;2023-07-09T11:20:33;6;5;
64138;PMS5003;50435;43.700;-79.318;2023-07-09T11:23:03;6;6;
64138;PMS5003;50435;43.700;-79.318;2023-07-09T11:25:40;8;6;
64138;PMS5003;50435;43.700;-79.318;2023-07-09T11:28:09;7;7;
64138;PMS5003;50435;43.700;-79.318;2023-07-09T11:30:45;4;4;
64138;PMS5003;50435;43.700;-79.318;2023-07-09T11:33:17;8;7;
64138;PMS5003;50435;43.700;-79.318;2023-07-09T11:35:47;4;4;
64138;PMS5003;50435;43.700;-79.318;2023-07-09T11:38:17;6;6;
64138;PMS5003;50435;43.700;-79.318;2023-07-09T11:40:47;4;4;
64138;PMS5003;50435;43.700;-79.318;2023-07-09T11:43:32;7;6;
64138;PMS5003;50435;43.700;-79.318;2023-07-09T11:46:05;6;6;
64138;PMS5003;50435;43.700;-79.318;2023-07-09T11:48:40;5;4;
64138;PMS5003;50435;43.700;-79.318;2023-07-09T11:51:10;7;7;
64138;PMS5003;50435;43.700;-79.318;2023-07-09T11:53:44;7;5;
64138;PMS5003;50435;43.700;-79.318;2023-07-09T11:56:18;6;6;
64138;PMS5003;50435;43.700;-79.318;2023-07-09T11:58:49;5;4;
64138;PMS5003;50435;43.700;-79.318;2023-07-09T12:01:18;5;5;
64138;PMS5003;50435;43.700;-79.318;2023-07-09T12:03:48;7;7;
64138;PMS5003;50435;43.700;-79.318;2023-07-09T12:06:17;6;6;
64138;PMS5003;50435;43.700;-79.318;2023-07-09T12:08:47;8;7;
64138;PMS5003;50435;43.700;-79.318;2023-07-09T12:11:18;5;5;
64138;PMS5003;50435;43.700;-79.318;2023-07-09T12:13:47;5;5;
64138;PMS5003;50435;43.700;-79.318;2023-07-09T12:16:24;6;6;
64138;PMS5003;50435;43.700;-79.318;2023-07-09T12:18:54;9;6;
64138;PMS5003;50435;43.700;-79.318;2023-07-09T12:21:22;6;5;
64138;PMS5003;50435;43.700;-79.318;2023-07-09T12:23:50;7;6;
64138;PMS5003;50435;43.700;-79.318;2023-07-09T12:26:19;7;6;
64138;PMS5003;50435;43.700;-79.318;2023-07-09T12:28:50;6;6;
64138;PMS5003;50435;43.700;-79.318;2023-07-09T12:31:21;6;6;
64138;PMS5003;50435;43.700;-79.318;2023-07-09T12:33:53;6;6;
64138;PMS5003;50435;43.700;-79.318;2023-07-09T12:36:22;8;8;
64138;PMS5003;50435;43.700;-79.318;2023-07-09T12:38:52;6;5;
64138;PMS5003;50435;43.700;-79.318;2023-07-09T12:41:23;8;8;
64138;PMS5003;50435;43.700;-79.318;2023-07-09T12:43:53;6;6;
64138;PMS5003;50435;43.700;-79.318;2023-07-09T12:46:22;11;7;
64138;PMS5003;50435;43.700;-79.318;2023-07-09T12:48:51;7;7;
64138;PMS5003;50435;43.700;-79.318;2023-07-09T12:51:22;8;7;
64138;PMS5003;50435;43.700;-79.318;2023-07-09T12:54:00;8;8;
64138;PMS5003;50435;43.700;-79.318;2023-07-09T12:56:30;7;7;
64138;PMS5003;50435;43.700;-79.318;2023-07-09T12:59:00;7;7;
64138;PMS5003;50435;43.700;-79.318;2023-07-09T13:01:38;8;8;
64138;PMS5003;50435;43.700;-79.318;2023-07-09T13:04:07;6;6;
64138;PMS5003;50435;43.700;-79.318;2023-07-09T13:06:38;6;6;
64138;PMS5003;50435;43.700;-79.318;2023-07-09T13:09:11;12;10;
64138;PMS5003;50435;43.700;-79.318;2023-07-09T13:11:44;5;5;
64138;PMS5003;50435;43.700;-79.318;2023-07-09T13:14:16;5;5;
64138;PMS5003;50435;43.700;-79.318;2023-07-09T13:16:45;7;6;
64138;PMS5003;50435;43.700;-79.318;2023-07-09T13:19:13;9;9;
64138;PMS5003;50435;43.700;-79.318;2023-07-09T13:21:41;12;9;
64138;PMS5003;50435;43.700;-79.318;2023-07-09T13:24:11;7;6;
64138;PMS5003;50435;43.700;-79.318;2023-07-09T13:26:42;11;11;
64138;PMS5003;50435;43.700;-79.318;2023-07-09T13:29:12;5;5;
64138;PMS5003;50435;43.700;-79.318;2023-07-09T13:31:41;9;9;
64138;PMS5003;50435;43.700;-79.318;2023-07-09T13:34:13;8;7;
64138;PMS5003;50435;43.700;-79.318;2023-07-09T13:36:46;7;7;
64138;PMS5003;50435;43.700;-79.318;2023-07-09T13:39:13;11;10;
64138;PMS5003;50435;43.700;-79.318;2023-07-09T13:41:42;7;7;
64138;PMS5003;50435;43.700;-79.318;2023-07-09T13:44:11;8;7;
64138;PMS5003;50435;43.700;-79.318;2023-07-09T13:46:41;11;9;
64138;PMS5003;50435;43.700;-79.318;2023-07-09T13:49:10;10;8;
64138;PMS5003;50435;43.700;-79.318;2023-07-09T13:51:39;9;8;
64138;PMS5003;50435;43.700;-79.318;2023-07-09T13:54:13;8;8;
64138;PMS5003;50435;43.700;-79.318;2023-07-09T13:56:44;10;10;
64138;PMS5003;50435;43.700;-79.318;2023-07-09T13:59:13;10;8;
64138;PMS5003;50435;43.700;-79.318;2023-07-09T14:01:42;11;8;
64138;PMS5003;50435;43.700;-79.318;2023-07-09T14:04:11;8;8;
64138;PMS5003;50435;43.700;-79.318;2023-07-09T14:06:40;11;10;
64138;PMS5003;50435;43.700;-79.318;2023-07-09T14:09:08;10;9;
64138;PMS5003;50435;43.700;-79.318;2023-07-09T14:11:37;9;8;
64138;PMS5003;50435;43.700;-79.318;2023-07-09T14:14:11;11;11;
64138;PMS5003;50435;43.700;-79.318;2023-07-09T14:16:44;7;7;
64138;PMS5003;50435;43.700;-79.318;2023-07-09T14:19:13;7;7;
64138;PMS5003;50435;43.700;-79.318;2023-07-09T14:21:41;8;8;
64138;PMS5003;50435;43.700;-79.318;2023-07-09T14:24:15;8;7;
64138;PMS5003;50435;43.700;-79.318;2023-07-09T14:26:46;7;7;
64138;PMS5003;50435;43.700;-79.318;2023-07-09T14:29:13;6;6;
64138;PMS5003;50435;43.700;-79.318;2023-07-09T14:31:41;8;8;
64138;PMS5003;50435;43.700;-79.318;2023-07-09T14:34:17;9;8;
64138;PMS5003;50435;43.700;-79.318;2023-07-09T14:36:47;10;7;
64138;PMS5003;50435;43.700;-79.318;2023-07-09T14:39:14;7;7;
64138;PMS5003;50435;43.700;-79.318;2023-07-09T14:41:42;9;9;
64138;PMS5003;50435;43.700;-79.318;2023-07-09T14:44:15;9;8;
64138;PMS5003;50435;43.700;-79.318;2023-07-09T14:46:48;7;7;
64138;PMS5003;50435;43.700;-79.318;2023-07-09T14:49:17;11;10;
64138;PMS5003;50435;43.700;-79.318;2023-07-09T14:51:45;8;6;
64138;PMS5003;50435;43.700;-79.318;2023-07-09T14:54:17;9;9;
64138;PMS5003;50435;43.700;-79.318;2023-07-09T14:56:47;11;9;
64138;PMS5003;50435;43.700;-79.318;2023-07-09T14:59:16;7;7;
64138;PMS5003;50435;43.700;-79.318;2023-07-09T15:01:44;9;7;
64138;PMS5003;50435;43.700;-79.318;2023-07-09T15:04:22;8;7;
64138;PMS5003;50435;43.700;-79.318;2023-07-09T15:06:55;5;5;
64138;PMS5003;50435;43.700;-79.318;2023-07-09T15:09:24;9;8;
64138;PMS5003;50435;43.700;-79.318;2023-07-09T15:11:53;8;7;
64138;PMS5003;50435;43.700;-79.318;2023-07-09T15:14:23;13;10;
64138;PMS5003;50435;43.700;-79.318;2023-07-09T15:16:52;7;7;
64138;PMS5003;50435;43.700;-79.318;2023-07-09T15:19:21;10;8;
64138;PMS5003;50435;43.700;-79.318;2023-07-09T15:21:49;8;5;
64138;PMS5003;50435;43.700;-79.318;2023-07-09T15:24:19;10;10;
64138;PMS5003;50435;43.700;-79.318;2023-07-09T15:26:50;9;7;
64138;PMS5003;50435;43.700;-79.318;2023-07-09T15:29:20;8;8;
64138;PMS5003;50435;43.700;-79.318;2023-07-09T15:31:48;11;11;
64138;PMS5003;50435;43.700;-79.318;2023-07-09T15:34:16;9;9;
64138;PMS5003;50435;43.700;-79.318;2023-07-09T15:36:45;12;10;
64138;PMS5003;50435;43.700;-79.318;2023-07-09T15:39:13;9;8;
64138;PMS5003;50435;43.700;-79.318;2023-07-09T15:41:41;8;8;
64138;PMS5003;50435;43.700;-79.318;2023-07-09T15:44:09;7;6;
64138;PMS5003;50435;43.700;-79.318;2023-07-09T15:46:38;9;7;
64138;PMS5003;50435;43.700;-79.318;2023-07-09T15:49:06;10;10;
64138;PMS5003;50435;43.700;-79.318;2023-07-09T15:51:37;6;6;
64138;PMS5003;50435;43.700;-79.318;2023-07-09T15:54:09;10;9;
64138;PMS5003;50435;43.700;-79.318;2023-07-09T15:56:42;6;6;
64138;PMS5003;50435;43.700;-79.318;2023-07-09T15:59:15;14;9;
64138;PMS5003;50435;43.700;-79.318;2023-07-09T16:01:52;9;9;
64138;PMS5003;50435;43.700;-79.318;2023-07-09T16:04:20;10;9;
64138;PMS5003;50435;43.700;-79.318;2023-07-09T16:06:47;9;8;
64138;PMS5003;50435;43.700;-79.318;2023-07-09T16:09:15;11;8;
64138;PMS5003;50435;43.700;-79.318;2023-07-09T16:11:43;8;8;
64138;PMS5003;50435;43.700;-79.318;2023-07-09T16:14:16;8;8;
64138;PMS5003;50435;43.700;-79.318;2023-07-09T16:16:49;10;9;
64138;PMS5003;50435;43.700;-79.318;2023-07-09T16:19:18;10;10;
64138;PMS5003;50435;43.700;-79.318;2023-07-09T16:21:46;6;6;
64138;PMS5003;50435;43.700;-79.318;2023-07-09T16:24:17;11;9;
64138;PMS5003;50435;43.700;-79.318;2023-07-09T16:26:48;11;8;
64138;PMS5003;50435;43.700;-79.318;2023-07-09T16:29:16;9;9;